Buxtehude — V2BY8 — position and weather

sailwx.info

Track history (hours):
 
Tides and Currents Weather Stations Pressure Air Temp Water Temp Dewpoint Dewpoint Depression Visibility Wind Speed Wind Dir Waves Ship Positions

Buxtehude

Last reported at 2017-Oct-22 19:20 UTC. Time now 2017-Oct-23 02:54 UTC.
Position N 38°60' E 003°04'.

Length 134 m; draft 7.1 m.

Type: Cargo ship. MMSI: 304962000.

Date/timePositionNaut miles runAvg speedWind from/ knotsBaromVisibWave heightAir tempDewpointWater temp
2017-Oct-22 19:20N 38°60' E 003°04'1514.6
2017-Oct-22 18:18N 39°05' E 002°46'514.5
2017-Oct-22 17:59N 39°07' E 002°40'74 2.7
2017-Oct-21 14:35N 40°21' E 002°39'218.4
2017-Oct-21 14:30N 40°21' E 002°41'51517.2
2017-Oct-20 08:30N 40°29' E 013°58'1617.0
2017-Oct-20 07:36N 40°29' E 014°18'418.0
2017-Oct-20 07:21N 40°31' E 014°23'68 3.5
2017-Oct-19 12:03N 39°31' E 015°05'213.9
2017-Oct-19 11:52N 39°29' E 015°06'2514.2
2017-Oct-19 10:05N 39°06' E 015°19'714.2
2017-Oct-19 09:35N 38°59' E 015°22'214.1
2017-Oct-19 09:26N 38°57' E 015°23'714.2
2017-Oct-19 08:56N 38°50' E 015°26'614.2
2017-Oct-19 08:30N 38°44' E 015°29'714.2
2017-Oct-19 08:00N 38°38' E 015°32'714.2
2017-Oct-19 07:29N 38°31' E 015°36'714.4
2017-Oct-19 07:00N 38°25' E 015°39'714.0
2017-Oct-19 06:29N 38°18' E 015°42'612.7
2017-Oct-19 06:00N 38°13' E 015°37'815.4
2017-Oct-19 05:30N 38°06' E 015°36'815.7
2017-Oct-19 05:00N 37°58' E 015°34'815.0
2017-Oct-19 04:30N 37°52' E 015°40'815.7
2017-Oct-19 04:00N 37°50' E 015°49'815.4
2017-Oct-19 03:30N 37°48' E 015°59'12115.2
2017-Oct-18 19:34N 37°16' E 018°25'2015.5
2017-Oct-18 18:15N 37°10' E 018°50'515.7
2017-Oct-18 17:55N 37°08' E 018°56'715.4
2017-Oct-18 17:29N 37°06' E 019°04'1515.0
2017-Oct-18 16:30N 37°02' E 019°22'815.4
2017-Oct-18 16:00N 36°60' E 019°31'915.6
2017-Oct-18 15:25N 36°57' E 019°42'715.8
2017-Oct-18 15:00N 36°55' E 019°50'  
2017-Oct-15 12:55N 32°53' E 034°54'615.7
2017-Oct-15 12:30N 32°48' E 034°49'918.6
2017-Oct-15 12:00N 32°40' E 034°45'918.1
2017-Oct-15 11:30N 32°31' E 034°43'918.2
2017-Oct-15 11:00N 32°22' E 034°40'918.3
2017-Oct-15 10:30N 32°13' E 034°38'918.3
2017-Oct-15 10:00N 32°04' E 034°35'25010.2
2017-Oct-14 09:32N 34°33' E 030°34'115.7
2017-Oct-14 09:30N 34°34' E 030°33'815.2
2017-Oct-14 09:00N 34°37' E 030°25'36515.7
2017-Oct-13 09:49N 37°35' E 023°51'617.9
2017-Oct-13 09:30N 37°38' E 023°45'917.4
2017-Oct-13 09:00N 37°45' E 023°39'917.3
2017-Oct-13 08:30N 37°54' E 023°36'4 6.3
2017-Oct-13 07:56N 37°58' E 023°36'0 0.0
2017-Oct-13 07:28N 37°58' E 023°36'0 0.0
2017-Oct-13 06:55N 37°58' E 023°36'0 0.0
2017-Oct-13 06:28N 37°58' E 023°36'0 0.0
2017-Oct-13 05:58N 37°58' E 023°36'0 0.0
2017-Oct-13 05:28N 37°58' E 023°36'0 0.0
2017-Oct-13 05:00N 37°58' E 023°36'0 0.2
2017-Oct-13 04:30N 37°57' E 023°36'2 3.9
2017-Oct-13 04:00N 37°56' E 023°36'0 0.6
2017-Oct-13 03:30N 37°55' E 023°36'2 3.6
2017-Oct-13 03:00N 37°54' E 023°36'2 4.4
2017-Oct-13 02:30N 37°52' E 023°38'611.9
2017-Oct-13 02:00N 37°47' E 023°41'815.0
2017-Oct-13 01:30N 37°40' E 023°45'714.9
2017-Oct-13 01:00N 37°33' E 023°44'815.1
2017-Oct-13 00:30N 37°25' E 023°42'  
Track history (hours):
 
Tides and Currents Weather Stations Pressure Air Temp Water Temp Dewpoint Dewpoint Depression Visibility Wind Speed Wind Dir Waves Ship Positions

Buxtehude

Last reported at 2017-Oct-22 19:20 UTC. Time now 2017-Oct-23 02:54 UTC.
Position N 38°60' E 003°04'.

Length 134 m; draft 7.1 m.

Type: Cargo ship. MMSI: 304962000.

Date/timePositionNaut miles runAvg speedWind from/ knotsBaromVisibWave heightAir tempDewpointWater temp
2017-Oct-22 19:20N 38°60' E 003°04'1514.6
2017-Oct-22 18:18N 39°05' E 002°46'514.5
2017-Oct-22 17:59N 39°07' E 002°40'74 2.7
2017-Oct-21 14:35N 40°21' E 002°39'218.4
2017-Oct-21 14:30N 40°21' E 002°41'51517.2
2017-Oct-20 08:30N 40°29' E 013°58'1617.0
2017-Oct-20 07:36N 40°29' E 014°18'418.0
2017-Oct-20 07:21N 40°31' E 014°23'68 3.5
2017-Oct-19 12:03N 39°31' E 015°05'213.9
2017-Oct-19 11:52N 39°29' E 015°06'2514.2
2017-Oct-19 10:05N 39°06' E 015°19'714.2
2017-Oct-19 09:35N 38°59' E 015°22'214.1
2017-Oct-19 09:26N 38°57' E 015°23'714.2
2017-Oct-19 08:56N 38°50' E 015°26'614.2
2017-Oct-19 08:30N 38°44' E 015°29'714.2
2017-Oct-19 08:00N 38°38' E 015°32'714.2
2017-Oct-19 07:29N 38°31' E 015°36'714.4
2017-Oct-19 07:00N 38°25' E 015°39'714.0
2017-Oct-19 06:29N 38°18' E 015°42'612.7
2017-Oct-19 06:00N 38°13' E 015°37'815.4
2017-Oct-19 05:30N 38°06' E 015°36'815.7
2017-Oct-19 05:00N 37°58' E 015°34'815.0
2017-Oct-19 04:30N 37°52' E 015°40'815.7
2017-Oct-19 04:00N 37°50' E 015°49'815.4
2017-Oct-19 03:30N 37°48' E 015°59'12115.2
2017-Oct-18 19:34N 37°16' E 018°25'2015.5
2017-Oct-18 18:15N 37°10' E 018°50'515.7
2017-Oct-18 17:55N 37°08' E 018°56'715.4
2017-Oct-18 17:29N 37°06' E 019°04'1515.0
2017-Oct-18 16:30N 37°02' E 019°22'815.4
2017-Oct-18 16:00N 36°60' E 019°31'915.6
2017-Oct-18 15:25N 36°57' E 019°42'715.8
2017-Oct-18 15:00N 36°55' E 019°50'  
2017-Oct-15 12:55N 32°53' E 034°54'615.7
2017-Oct-15 12:30N 32°48' E 034°49'918.6
2017-Oct-15 12:00N 32°40' E 034°45'918.1
2017-Oct-15 11:30N 32°31' E 034°43'918.2
2017-Oct-15 11:00N 32°22' E 034°40'918.3
2017-Oct-15 10:30N 32°13' E 034°38'918.3
2017-Oct-15 10:00N 32°04' E 034°35'25010.2
2017-Oct-14 09:32N 34°33' E 030°34'115.7
2017-Oct-14 09:30N 34°34' E 030°33'815.2
2017-Oct-14 09:00N 34°37' E 030°25'36515.7
2017-Oct-13 09:49N 37°35' E 023°51'617.9
2017-Oct-13 09:30N 37°38' E 023°45'917.4
2017-Oct-13 09:00N 37°45' E 023°39'917.3
2017-Oct-13 08:30N 37°54' E 023°36'4 6.3
2017-Oct-13 07:56N 37°58' E 023°36'0 0.0
2017-Oct-13 07:28N 37°58' E 023°36'0 0.0
2017-Oct-13 06:55N 37°58' E 023°36'0 0.0
2017-Oct-13 06:28N 37°58' E 023°36'0 0.0
2017-Oct-13 05:58N 37°58' E 023°36'0 0.0
2017-Oct-13 05:28N 37°58' E 023°36'0 0.0
2017-Oct-13 05:00N 37°58' E 023°36'0 0.2
2017-Oct-13 04:30N 37°57' E 023°36'2 3.9
2017-Oct-13 04:00N 37°56' E 023°36'0 0.6
2017-Oct-13 03:30N 37°55' E 023°36'2 3.6
2017-Oct-13 03:00N 37°54' E 023°36'2 4.4
2017-Oct-13 02:30N 37°52' E 023°38'611.9
2017-Oct-13 02:00N 37°47' E 023°41'815.0
2017-Oct-13 01:30N 37°40' E 023°45'714.9
2017-Oct-13 01:00N 37°33' E 023°44'815.1
2017-Oct-13 00:30N 37°25' E 023°42'  

Dump ship's entire track history